Time;durP1;ratioP1;P1;durP2;ratioP2;P2;SDS_P1;SDS_P2;PMS_P1;PMS_P2;Temp;Humidity;BMP_temperature;BMP_pressure;BME280_temperature;BME280_humidity;BME280_pressure;Samples;Min_cycle;Max_cycle;Signal;HPM_P1;HPM_P2
2021/06/30 00:00:38;;;;;;;;;;;21.70;58.20;;;;;;492153;242;2129;-73
2021/06/30 00:02:40;;;;;;;;;;;21.70;58.30;;;;;;492192;238;1084;-73
2021/06/30 00:04:41;;;;;;;;;;;21.60;58.30;;;;;;492192;242;1036;-73
2021/06/30 00:06:42;;;;;;;;;;;21.60;58.30;;;;;;492153;242;1279;-73
2021/06/30 00:08:44;;;;;;;;;;;21.60;58.20;;;;;;492190;242;1035;-73
2021/06/30 00:10:45;;;;;;;;;;;21.70;58.40;;;;;;492179;242;1097;-73
2021/06/30 00:12:47;;;;;;;;;;;21.70;58.30;;;;;;492165;242;1059;-73
2021/06/30 00:14:48;;;;;;;;;;;21.70;58.30;;;;;;492181;242;1090;-73
2021/06/30 00:16:49;;;;;;;;;;;21.60;58.30;;;;;;492185;242;1173;-73
2021/06/30 00:18:50;;;;;;;;;;;21.70;58.20;;;;;;492171;242;1133;-73
2021/06/30 00:20:52;;;;;;;;;;;21.60;58.20;;;;;;492151;242;2140;-73
2021/06/30 00:22:53;;;;;;;;;;;21.70;58.30;;;;;;492261;242;1120;-73
2021/06/30 00:24:54;;;;;;;;;;;21.60;58.20;;;;;;492240;242;1288;-73
2021/06/30 00:26:56;;;;;;;;;;;21.60;58.30;;;;;;492161;242;1227;-73
2021/06/30 00:28:57;;;;;;;;;;;21.60;58.20;;;;;;492221;242;1133;-73
2021/06/30 00:30:59;;;;;;;;;;;21.60;58.30;;;;;;492145;242;1207;-73
2021/06/30 00:33:00;;;;;;;;;;;21.60;58.40;;;;;;492244;242;1260;-73
2021/06/30 00:35:01;;;;;;;;;;;21.60;58.50;;;;;;492146;242;1077;-73
2021/06/30 00:37:03;;;;;;;;;;;21.60;58.40;;;;;;492120;242;1130;-72
2021/06/30 00:39:04;;;;;;;;;;;21.60;58.40;;;;;;492176;242;1140;-72
2021/06/30 00:41:05;;;;;;;;;;;21.60;58.40;;;;;;492085;242;2184;-73
2021/06/30 00:43:07;;;;;;;;;;;21.60;58.40;;;;;;492188;242;1129;-73
2021/06/30 00:45:08;;;;;;;;;;;21.60;58.50;;;;;;492161;242;1042;-73
2021/06/30 00:47:09;;;;;;;;;;;21.60;58.50;;;;;;492163;242;1307;-73
2021/06/30 00:49:11;;;;;;;;;;;21.60;58.60;;;;;;492199;242;1155;-73
2021/06/30 00:51:12;;;;;;;;;;;21.50;58.60;;;;;;492186;242;1107;-73
2021/06/30 00:53:13;;;;;;;;;;;21.60;58.60;;;;;;492260;242;1201;-73
2021/06/30 00:55:16;;;;;;;;;;;21.50;58.50;;;;;;492221;242;978;-73
2021/06/30 00:57:18;;;;;;;;;;;21.60;58.50;;;;;;492168;242;1078;-73
2021/06/30 00:59:19;;;;;;;;;;;21.60;58.40;;;;;;492253;242;1129;-73
2021/06/30 01:01:20;;;;;;;;;;;21.60;58.40;;;;;;492178;242;2235;-73
2021/06/30 01:03:22;;;;;;;;;;;21.60;58.40;;;;;;492245;242;1164;-73
2021/06/30 01:05:23;;;;;;;;;;;21.60;58.50;;;;;;492228;242;1357;-73
2021/06/30 01:07:24;;;;;;;;;;;21.60;58.40;;;;;;492175;242;1210;-73
2021/06/30 01:09:26;;;;;;;;;;;21.60;58.40;;;;;;492220;242;965;-73
2021/06/30 01:11:27;;;;;;;;;;;21.60;58.40;;;;;;492212;242;1108;-73
2021/06/30 01:13:29;;;;;;;;;;;21.60;58.40;;;;;;492178;242;981;-73
2021/06/30 01:15:30;;;;;;;;;;;21.70;58.30;;;;;;492170;242;1063;-72
2021/06/30 01:17:31;;;;;;;;;;;21.60;58.30;;;;;;492132;242;1063;-72
2021/06/30 01:19:34;;;;;;;;;;;21.60;58.50;;;;;;492162;242;1150;-72
2021/06/30 01:21:34;;;;;;;;;;;21.60;58.30;;;;;;492068;242;2124;-73
2021/06/30 01:23:35;;;;;;;;;;;21.60;58.40;;;;;;492226;242;1059;-72
2021/06/30 01:25:37;;;;;;;;;;;21.60;58.40;;;;;;492165;242;1145;-72
2021/06/30 01:27:38;;;;;;;;;;;21.60;58.50;;;;;;492203;242;1138;-72
2021/06/30 01:29:39;;;;;;;;;;;21.60;58.50;;;;;;492224;242;1089;-72
2021/06/30 01:31:41;;;;;;;;;;;21.70;58.50;;;;;;492083;242;1168;-72
2021/06/30 01:33:42;;;;;;;;;;;21.60;58.40;;;;;;492178;242;1158;-72
2021/06/30 01:35:43;;;;;;;;;;;21.60;58.40;;;;;;492151;242;1427;-73
2021/06/30 01:37:45;;;;;;;;;;;21.60;58.30;;;;;;492184;242;1143;-73
2021/06/30 01:39:46;;;;;;;;;;;21.60;58.40;;;;;;492227;242;1117;-73
2021/06/30 01:41:47;;;;;;;;;;;21.60;58.50;;;;;;492179;242;2184;-73
2021/06/30 01:43:49;;;;;;;;;;;21.60;58.60;;;;;;492257;242;1057;-73
2021/06/30 01:45:50;;;;;;;;;;;21.60;58.60;;;;;;492195;242;1253;-73
2021/06/30 01:47:51;;;;;;;;;;;21.50;58.50;;;;;;492218;242;1077;-73
2021/06/30 01:49:53;;;;;;;;;;;21.60;58.50;;;;;;492276;238;1150;-73
2021/06/30 01:51:54;;;;;;;;;;;21.60;58.50;;;;;;492188;242;1195;-73
2021/06/30 01:53:56;;;;;;;;;;;21.50;58.60;;;;;;492231;242;1030;-73
2021/06/30 01:55:57;;;;;;;;;;;21.60;58.50;;;;;;492182;242;1205;-73
2021/06/30 01:57:59;;;;;;;;;;;21.60;58.40;;;;;;492200;242;1078;-73
2021/06/30 02:00:00;;;;;;;;;;;21.60;58.50;;;;;;492269;242;1047;-73
2021/06/30 02:02:02;;;;;;;;;;;21.60;58.60;;;;;;492130;242;2183;-73
2021/06/30 02:04:02;;;;;;;;;;;21.60;58.40;;;;;;492225;242;1510;-73
2021/06/30 02:06:04;;;;;;;;;;;21.60;58.40;;;;;;492094;242;1208;-73
2021/06/30 02:08:05;;;;;;;;;;;21.60;58.40;;;;;;492133;242;1112;-73
2021/06/30 02:10:06;;;;;;;;;;;21.60;58.30;;;;;;492244;242;953;-73
2021/06/30 02:12:08;;;;;;;;;;;21.60;58.30;;;;;;492156;242;1516;-73
2021/06/30 02:14:09;;;;;;;;;;;21.70;58.10;;;;;;492233;242;1086;-73
2021/06/30 02:16:10;;;;;;;;;;;21.60;58.10;;;;;;492205;242;1036;-72
2021/06/30 02:18:13;;;;;;;;;;;21.70;58.10;;;;;;492286;242;920;-72
2021/06/30 02:20:13;;;;;;;;;;;21.70;58.10;;;;;;492151;242;1510;-72
2021/06/30 02:22:15;;;;;;;;;;;21.70;57.90;;;;;;492136;242;2180;-73
2021/06/30 02:24:16;;;;;;;;;;;21.70;57.90;;;;;;492193;242;926;-73
2021/06/30 02:26:17;;;;;;;;;;;21.70;58.00;;;;;;492251;242;1078;-73
2021/06/30 02:28:18;;;;;;;;;;;21.80;57.90;;;;;;492227;242;978;-73
2021/06/30 02:30:20;;;;;;;;;;;21.80;57.70;;;;;;492262;242;1000;-73
2021/06/30 02:32:21;;;;;;;;;;;21.80;57.70;;;;;;492205;242;1091;-72
2021/06/30 02:34:22;;;;;;;;;;;21.80;57.60;;;;;;492169;242;1207;-72
2021/06/30 02:36:24;;;;;;;;;;;21.80;57.60;;;;;;492174;242;1207;-72
2021/06/30 02:38:25;;;;;;;;;;;21.80;57.70;;;;;;492320;242;1063;-73
2021/06/30 02:40:26;;;;;;;;;;;21.70;57.70;;;;;;492221;242;1054;-73
2021/06/30 02:42:28;;;;;;;;;;;21.70;57.90;;;;;;492223;242;2187;-73
2021/06/30 02:44:29;;;;;;;;;;;21.80;57.80;;;;;;492260;242;1034;-73
2021/06/30 02:46:30;;;;;;;;;;;21.80;57.80;;;;;;492190;242;1229;-73
2021/06/30 02:48:32;;;;;;;;;;;21.70;57.80;;;;;;492197;242;973;-73
2021/06/30 02:50:33;;;;;;;;;;;21.80;57.60;;;;;;492205;242;1150;-72
2021/06/30 02:52:34;;;;;;;;;;;21.80;57.60;;;;;;492216;242;1130;-72
2021/06/30 02:54:36;;;;;;;;;;;21.80;57.60;;;;;;492278;242;1070;-72
2021/06/30 02:56:37;;;;;;;;;;;21.80;57.60;;;;;;492131;242;1194;-72
2021/06/30 02:58:38;;;;;;;;;;;21.80;57.70;;;;;;492178;242;1048;-72
2021/06/30 03:00:40;;;;;;;;;;;21.80;57.80;;;;;;492115;242;974;-72
2021/06/30 03:02:41;;;;;;;;;;;21.80;57.90;;;;;;492262;242;2180;-72
2021/06/30 03:04:42;;;;;;;;;;;21.70;57.80;;;;;;492226;242;1177;-73
2021/06/30 03:06:44;;;;;;;;;;;21.80;57.80;;;;;;492163;242;1211;-73
2021/06/30 03:08:45;;;;;;;;;;;21.80;57.70;;;;;;492241;242;1059;-73
2021/06/30 03:10:46;;;;;;;;;;;21.90;57.70;;;;;;492196;242;1026;-73
2021/06/30 03:12:48;;;;;;;;;;;21.80;57.60;;;;;;492231;242;1047;-73
2021/06/30 03:14:49;;;;;;;;;;;21.80;57.60;;;;;;492309;242;956;-73
2021/06/30 03:16:50;;;;;;;;;;;21.90;57.70;;;;;;492208;242;1339;-73
2021/06/30 03:18:52;;;;;;;;;;;21.80;57.70;;;;;;492245;242;1050;-73
2021/06/30 03:20:53;;;;;;;;;;;21.80;57.60;;;;;;492239;242;1180;-72
2021/06/30 03:22:55;;;;;;;;;;;21.80;57.50;;;;;;492213;242;2188;-72
2021/06/30 03:24:56;;;;;;;;;;;21.80;57.60;;;;;;492262;242;1054;-72
2021/06/30 03:26:57;;;;;;;;;;;21.80;57.60;;;;;;492226;242;1023;-72
2021/06/30 03:29:00;;;;;;;;;;;21.80;57.50;;;;;;492233;242;943;-73
2021/06/30 03:31:00;;;;;;;;;;;21.80;57.50;;;;;;492241;242;1510;-73
2021/06/30 03:33:02;;;;;;;;;;;21.80;57.60;;;;;;492306;242;1077;-73
2021/06/30 03:35:03;;;;;;;;;;;21.80;57.60;;;;;;492213;242;1138;-72
2021/06/30 03:37:04;;;;;;;;;;;21.70;57.70;;;;;;492168;242;975;-73
2021/06/30 03:39:06;;;;;;;;;;;21.70;57.90;;;;;;492234;242;1235;-73
2021/06/30 03:41:07;;;;;;;;;;;21.70;57.80;;;;;;492203;242;1063;-73
2021/06/30 03:43:08;;;;;;;;;;;21.70;57.70;;;;;;492185;242;2145;-73
2021/06/30 03:45:09;;;;;;;;;;;21.70;57.70;;;;;;492234;242;1037;-73
2021/06/30 03:47:11;;;;;;;;;;;21.70;57.70;;;;;;492006;242;1085;-73
2021/06/30 03:49:12;;;;;;;;;;;21.70;57.60;;;;;;492143;242;1096;-73
2021/06/30 03:51:13;;;;;;;;;;;21.70;57.70;;;;;;492053;242;1268;-73
2021/06/30 03:53:15;;;;;;;;;;;21.70;57.90;;;;;;492168;242;1328;-73
2021/06/30 03:55:16;;;;;;;;;;;21.60;58.00;;;;;;492166;242;973;-73
2021/06/30 03:57:17;;;;;;;;;;;21.60;58.00;;;;;;492035;242;1211;-73
2021/06/30 03:59:19;;;;;;;;;;;21.60;58.00;;;;;;492157;242;984;-73
2021/06/30 04:01:20;;;;;;;;;;;21.60;57.90;;;;;;492196;242;1206;-73
2021/06/30 04:03:22;;;;;;;;;;;21.60;58.00;;;;;;492176;242;2176;-73
2021/06/30 04:05:23;;;;;;;;;;;21.60;58.10;;;;;;492200;242;1067;-72
2021/06/30 04:07:24;;;;;;;;;;;21.50;58.20;;;;;;492116;242;1152;-72
2021/06/30 04:09:26;;;;;;;;;;;21.60;58.10;;;;;;492176;242;967;-72
2021/06/30 04:11:27;;;;;;;;;;;21.60;57.90;;;;;;492088;242;1387;-72
2021/06/30 04:13:28;;;;;;;;;;;21.70;57.70;;;;;;492056;242;1032;-72
2021/06/30 04:15:30;;;;;;;;;;;21.70;57.70;;;;;;492088;242;1051;-72
2021/06/30 04:17:31;;;;;;;;;;;21.70;57.70;;;;;;492086;242;1046;-72
2021/06/30 04:19:32;;;;;;;;;;;21.70;57.70;;;;;;492106;242;1124;-72
2021/06/30 04:21:34;;;;;;;;;;;21.70;57.70;;;;;;492006;242;2168;-73
2021/06/30 04:23:35;;;;;;;;;;;21.60;57.80;;;;;;492095;242;964;-72
2021/06/30 04:25:36;;;;;;;;;;;21.60;57.80;;;;;;492091;242;1029;-72
2021/06/30 04:27:38;;;;;;;;;;;21.70;57.70;;;;;;492102;242;1076;-72
2021/06/30 04:29:39;;;;;;;;;;;21.60;57.50;;;;;;492100;242;1049;-72
2021/06/30 04:31:40;;;;;;;;;;;21.70;57.50;;;;;;492057;242;1207;-72
2021/06/30 04:33:42;;;;;;;;;;;21.60;57.60;;;;;;492063;242;983;-72
2021/06/30 04:35:43;;;;;;;;;;;21.60;57.60;;;;;;492085;242;1192;-72
2021/06/30 04:37:44;;;;;;;;;;;21.60;57.60;;;;;;491998;242;1112;-72
2021/06/30 04:39:46;;;;;;;;;;;21.60;57.60;;;;;;492059;242;1105;-72
2021/06/30 04:41:47;;;;;;;;;;;21.60;57.60;;;;;;492057;242;2200;-72
2021/06/30 04:43:49;;;;;;;;;;;21.50;57.70;;;;;;492056;242;1077;-72
2021/06/30 04:45:50;;;;;;;;;;;21.60;57.60;;;;;;492089;242;1130;-73
2021/06/30 04:47:51;;;;;;;;;;;21.60;57.70;;;;;;492103;242;1066;-72
2021/06/30 04:49:53;;;;;;;;;;;21.60;57.70;;;;;;492044;242;974;-72
2021/06/30 04:51:54;;;;;;;;;;;21.50;57.70;;;;;;492001;242;1323;-72
2021/06/30 04:53:55;;;;;;;;;;;21.50;57.70;;;;;;491998;242;1056;-72
2021/06/30 04:55:58;;;;;;;;;;;21.50;57.70;;;;;;492022;242;1186;-72
2021/06/30 04:57:58;;;;;;;;;;;21.50;57.70;;;;;;491776;242;1471;-72
2021/06/30 04:59:59;;;;;;;;;;;21.60;57.70;;;;;;491949;242;1088;-72
2021/06/30 05:02:00;;;;;;;;;;;21.60;57.60;;;;;;491908;242;2140;-73
2021/06/30 05:04:02;;;;;;;;;;;21.60;57.40;;;;;;491837;242;972;-72
2021/06/30 05:06:03;;;;;;;;;;;21.60;57.50;;;;;;491848;242;1291;-72
2021/06/30 05:08:04;;;;;;;;;;;21.40;57.70;;;;;;491864;242;1039;-72
2021/06/30 05:10:06;;;;;;;;;;;21.40;57.80;;;;;;491875;242;989;-72
2021/06/30 05:12:07;;;;;;;;;;;21.40;57.90;;;;;;491988;242;1180;-72
2021/06/30 05:14:08;;;;;;;;;;;21.40;57.80;;;;;;491981;242;1011;-72
2021/06/30 05:16:10;;;;;;;;;;;21.40;57.80;;;;;;491916;242;1076;-72
2021/06/30 05:18:11;;;;;;;;;;;21.50;57.80;;;;;;491928;242;1081;-72
2021/06/30 05:20:12;;;;;;;;;;;21.40;57.80;;;;;;491826;242;1041;-73
2021/06/30 05:22:14;;;;;;;;;;;21.40;57.90;;;;;;491891;242;2176;-73
2021/06/30 05:24:15;;;;;;;;;;;21.40;57.90;;;;;;491866;242;1087;-72
2021/06/30 05:26:16;;;;;;;;;;;21.40;57.90;;;;;;491873;242;1074;-72
2021/06/30 05:28:18;;;;;;;;;;;21.40;58.00;;;;;;491917;242;1034;-72
2021/06/30 05:30:19;;;;;;;;;;;21.40;58.00;;;;;;491941;242;1064;-72
2021/06/30 05:32:20;;;;;;;;;;;21.40;58.00;;;;;;491819;242;1033;-72
2021/06/30 05:34:22;;;;;;;;;;;21.40;58.00;;;;;;491764;242;1076;-72
2021/06/30 05:36:23;;;;;;;;;;;21.30;58.20;;;;;;491833;242;1309;-72
2021/06/30 05:38:24;;;;;;;;;;;21.30;58.10;;;;;;491805;242;1128;-72
2021/06/30 05:40:25;;;;;;;;;;;21.40;58.00;;;;;;491818;242;1125;-72
2021/06/30 05:42:27;;;;;;;;;;;21.50;57.80;;;;;;491927;242;2199;-72
2021/06/30 05:44:28;;;;;;;;;;;21.50;57.60;;;;;;491908;242;1117;-72
2021/06/30 05:46:29;;;;;;;;;;;21.60;57.50;;;;;;491895;242;1125;-72
2021/06/30 05:48:31;;;;;;;;;;;21.60;57.30;;;;;;491864;242;1064;-72
2021/06/30 05:50:32;;;;;;;;;;;21.60;57.30;;;;;;491849;242;1188;-72
2021/06/30 05:52:33;;;;;;;;;;;21.70;57.10;;;;;;491730;242;1175;-72
2021/06/30 05:54:35;;;;;;;;;;;21.70;57.20;;;;;;491700;242;1029;-72
2021/06/30 05:56:36;;;;;;;;;;;21.70;57.10;;;;;;491717;242;1190;-72
2021/06/30 05:58:37;;;;;;;;;;;21.70;57.00;;;;;;491752;242;1070;-72
2021/06/30 06:00:39;;;;;;;;;;;21.60;56.90;;;;;;491680;242;1401;-72
2021/06/30 06:02:40;;;;;;;;;;;21.70;57.00;;;;;;491616;242;2128;-72
2021/06/30 06:04:41;;;;;;;;;;;21.70;56.90;;;;;;491632;242;1097;-73
2021/06/30 06:06:43;;;;;;;;;;;21.70;56.80;;;;;;491618;242;1229;-72
2021/06/30 06:08:44;;;;;;;;;;;21.70;56.80;;;;;;491739;242;1040;-72
2021/06/30 06:10:45;;;;;;;;;;;21.70;56.80;;;;;;491630;242;1401;-72
2021/06/30 06:12:47;;;;;;;;;;;21.70;56.80;;;;;;491753;242;1558;-73
2021/06/30 06:14:48;;;;;;;;;;;21.70;56.70;;;;;;491538;242;1070;-72
2021/06/30 06:16:49;;;;;;;;;;;21.70;56.60;;;;;;491592;242;1159;-72
2021/06/30 06:18:51;;;;;;;;;;;21.80;56.70;;;;;;491718;242;1023;-72
2021/06/30 06:20:52;;;;;;;;;;;21.70;56.70;;;;;;491692;242;1129;-72
2021/06/30 06:22:54;;;;;;;;;;;21.70;56.70;;;;;;491630;242;2192;-72
2021/06/30 06:24:55;;;;;;;;;;;21.70;56.80;;;;;;491558;242;1409;-72
2021/06/30 06:26:56;;;;;;;;;;;21.70;56.70;;;;;;491646;242;1219;-73
2021/06/30 06:28:57;;;;;;;;;;;21.70;56.60;;;;;;491723;242;1040;-73
2021/06/30 06:30:58;;;;;;;;;;;21.80;56.50;;;;;;491665;242;1138;-72
2021/06/30 06:33:00;;;;;;;;;;;21.80;56.40;;;;;;491645;242;1046;-72
2021/06/30 06:35:01;;;;;;;;;;;21.80;56.40;;;;;;491649;242;1012;-73
2021/06/30 06:37:02;;;;;;;;;;;21.90;56.30;;;;;;491634;242;1215;-73
2021/06/30 06:39:04;;;;;;;;;;;21.80;56.30;;;;;;491627;242;1164;-72
2021/06/30 06:41:06;;;;;;;;;;;21.80;56.30;;;;;;491606;242;1374;-72
2021/06/30 06:43:07;;;;;;;;;;;21.80;56.30;;;;;;491667;242;2188;-72
2021/06/30 06:45:08;;;;;;;;;;;21.80;56.30;;;;;;491609;242;1207;-72
2021/06/30 06:47:10;;;;;;;;;;;21.80;56.20;;;;;;491607;242;1159;-72
2021/06/30 06:49:11;;;;;;;;;;;21.90;56.20;;;;;;491474;242;1037;-72
2021/06/30 06:51:12;;;;;;;;;;;21.80;56.30;;;;;;491572;242;1327;-73
2021/06/30 06:53:14;;;;;;;;;;;21.80;56.30;;;;;;491623;242;1172;-72
2021/06/30 06:55:15;;;;;;;;;;;21.80;56.30;;;;;;491550;242;1083;-72
2021/06/30 06:57:16;;;;;;;;;;;21.70;56.40;;;;;;491575;242;1147;-72
2021/06/30 06:59:18;;;;;;;;;;;21.70;56.70;;;;;;491549;242;1078;-72
2021/06/30 07:01:19;;;;;;;;;;;21.60;56.80;;;;;;491472;242;1198;-72
2021/06/30 07:03:20;;;;;;;;;;;21.50;56.90;;;;;;491458;242;2140;-72
2021/06/30 07:05:22;;;;;;;;;;;21.50;57.00;;;;;;491506;242;1109;-72
2021/06/30 07:07:23;;;;;;;;;;;21.50;57.00;;;;;;491300;242;1072;-72
2021/06/30 07:09:24;;;;;;;;;;;21.50;57.10;;;;;;490550;242;1117;-72
2021/06/30 07:11:26;;;;;;;;;;;21.50;57.00;;;;;;491352;242;1163;-72
2021/06/30 07:13:27;;;;;;;;;;;21.50;57.10;;;;;;491467;242;1078;-72
2021/06/30 07:15:28;;;;;;;;;;;21.40;57.00;;;;;;491394;242;1136;-72
2021/06/30 07:17:29;;;;;;;;;;;21.50;57.10;;;;;;491329;242;1120;-72
2021/06/30 07:19:31;;;;;;;;;;;21.50;57.00;;;;;;491358;242;1038;-72
2021/06/30 07:21:33;;;;;;;;;;;21.60;57.00;;;;;;491354;242;1024;-72
2021/06/30 07:23:33;;;;;;;;;;;21.50;57.10;;;;;;491294;242;2190;-72
2021/06/30 07:25:35;;;;;;;;;;;21.40;57.10;;;;;;491372;242;1153;-72
2021/06/30 07:27:36;;;;;;;;;;;21.40;57.10;;;;;;491432;242;1064;-73
2021/06/30 07:29:38;;;;;;;;;;;21.40;57.20;;;;;;491368;242;1038;-72
2021/06/30 07:31:39;;;;;;;;;;;21.40;57.30;;;;;;491398;242;1110;-73
2021/06/30 07:33:41;;;;;;;;;;;21.50;57.30;;;;;;491760;242;1064;-72
2021/06/30 07:35:42;;;;;;;;;;;21.40;57.30;;;;;;491280;242;1365;-72
2021/06/30 07:37:43;;;;;;;;;;;21.40;57.40;;;;;;491307;242;1108;-73
2021/06/30 07:39:44;;;;;;;;;;;21.40;57.40;;;;;;491194;242;1086;-73
2021/06/30 07:41:46;;;;;;;;;;;21.40;57.40;;;;;;491046;242;1272;-72
2021/06/30 07:43:47;;;;;;;;;;;21.40;57.30;;;;;;491200;242;2136;-72
2021/06/30 07:45:48;;;;;;;;;;;21.40;57.40;;;;;;490824;242;1080;-72
2021/06/30 07:47:49;;;;;;;;;;;21.40;57.40;;;;;;491131;242;1031;-73
2021/06/30 07:49:51;;;;;;;;;;;21.40;57.40;;;;;;491193;242;1098;-72
2021/06/30 07:51:52;;;;;;;;;;;21.30;57.50;;;;;;491187;242;1177;-72
2021/06/30 07:53:53;;;;;;;;;;;21.30;57.40;;;;;;491218;242;1133;-72
2021/06/30 07:55:55;;;;;;;;;;;21.30;57.40;;;;;;491342;242;1167;-72
2021/06/30 07:57:56;;;;;;;;;;;21.40;57.40;;;;;;491405;242;1063;-72
2021/06/30 07:59:57;;;;;;;;;;;21.40;57.40;;;;;;491315;242;1210;-72
2021/06/30 08:01:59;;;;;;;;;;;21.30;57.50;;;;;;491155;242;1347;-73
2021/06/30 08:04:00;;;;;;;;;;;21.40;57.40;;;;;;491367;242;2136;-72
2021/06/30 08:06:01;;;;;;;;;;;21.30;57.30;;;;;;491361;242;1152;-72
2021/06/30 08:08:03;;;;;;;;;;;21.30;57.20;;;;;;491528;242;1061;-72
2021/06/30 08:10:04;;;;;;;;;;;21.40;57.10;;;;;;491431;242;1220;-72
2021/06/30 08:12:05;;;;;;;;;;;21.40;56.80;;;;;;491531;242;1258;-73
2021/06/30 08:14:07;;;;;;;;;;;21.40;56.90;;;;;;491447;242;1107;-72
2021/06/30 08:16:08;;;;;;;;;;;21.40;57.00;;;;;;491403;242;1138;-72
2021/06/30 08:18:10;;;;;;;;;;;21.40;56.90;;;;;;491548;242;1103;-73
2021/06/30 08:20:11;;;;;;;;;;;21.30;56.80;;;;;;491638;242;1161;-72
2021/06/30 08:22:13;;;;;;;;;;;21.10;57.50;;;;;;491321;242;1091;-72
2021/06/30 08:24:14;;;;;;;;;;;20.80;58.10;;;;;;491242;242;2183;-72
2021/06/30 08:26:15;;;;;;;;;;;20.70;58.50;;;;;;491234;242;1197;-72
2021/06/30 08:28:19;;;;;;;;;;;20.70;58.80;;;;;;491714;242;1127;-72
2021/06/30 08:30:18;;;;;;;;;;;20.60;59.00;;;;;;492046;242;1299;-72
2021/06/30 08:32:21;;;;;;;;;;;20.50;59.00;;;;;;491665;242;1009;-72
2021/06/30 08:34:21;;;;;;;;;;;20.50;59.20;;;;;;491526;242;1254;-72
2021/06/30 08:36:22;;;;;;;;;;;20.40;59.20;;;;;;491333;242;1181;-72
2021/06/30 08:38:23;;;;;;;;;;;20.40;59.30;;;;;;491309;242;1124;-72
2021/06/30 08:40:25;;;;;;;;;;;20.40;59.40;;;;;;491121;242;1016;-72
2021/06/30 08:42:26;;;;;;;;;;;20.40;59.50;;;;;;491300;242;1097;-73
2021/06/30 08:44:27;;;;;;;;;;;20.40;59.40;;;;;;491359;242;2212;-72
2021/06/30 08:46:30;;;;;;;;;;;20.40;59.60;;;;;;491344;242;1304;-72
2021/06/30 08:48:30;;;;;;;;;;;20.40;59.50;;;;;;491370;242;1466;-72
2021/06/30 08:50:31;;;;;;;;;;;20.30;59.50;;;;;;491444;242;1045;-72
2021/06/30 08:52:33;;;;;;;;;;;20.40;59.60;;;;;;491312;242;1087;-72
2021/06/30 08:54:34;;;;;;;;;;;20.30;59.60;;;;;;491179;242;1142;-72
2021/06/30 08:56:35;;;;;;;;;;;20.30;59.60;;;;;;491114;242;1218;-72
2021/06/30 08:58:37;;;;;;;;;;;20.30;59.70;;;;;;491362;242;1113;-72
2021/06/30 09:00:38;;;;;;;;;;;20.30;59.60;;;;;;491280;242;1211;-72
2021/06/30 09:02:39;;;;;;;;;;;20.30;59.60;;;;;;491348;242;1205;-72
2021/06/30 09:04:42;;;;;;;;;;;20.20;59.50;;;;;;491291;242;2144;-72
2021/06/30 09:06:42;;;;;;;;;;;20.30;59.60;;;;;;491177;242;1424;-72
2021/06/30 09:08:43;;;;;;;;;;;20.20;59.60;;;;;;491318;242;1166;-72
2021/06/30 09:10:45;;;;;;;;;;;20.30;59.50;;;;;;491404;242;1434;-72
2021/06/30 09:12:46;;;;;;;;;;;20.20;59.40;;;;;;491372;242;1126;-72
2021/06/30 09:14:47;;;;;;;;;;;20.30;59.40;;;;;;491345;242;1098;-72
2021/06/30 09:16:49;;;;;;;;;;;20.20;59.40;;;;;;491355;242;1199;-72
2021/06/30 09:18:51;;;;;;;;;;;20.20;59.30;;;;;;491393;242;1066;-72
2021/06/30 09:20:52;;;;;;;;;;;20.30;59.40;;;;;;491358;242;1242;-72
2021/06/30 09:22:55;;;;;;;;;;;20.20;59.40;;;;;;491470;242;1097;-72
2021/06/30 09:24:54;;;;;;;;;;;20.20;59.30;;;;;;491265;242;2152;-72
2021/06/30 09:26:57;;;;;;;;;;;20.20;59.30;;;;;;491410;242;1157;-72
2021/06/30 09:28:57;;;;;;;;;;;20.30;59.30;;;;;;491192;242;1211;-72
2021/06/30 09:30:59;;;;;;;;;;;20.20;59.30;;;;;;491087;242;1387;-72
2021/06/30 09:33:00;;;;;;;;;;;20.30;59.40;;;;;;491530;242;1136;-72
2021/06/30 09:35:01;;;;;;;;;;;20.20;59.40;;;;;;491480;242;1076;-72
2021/06/30 09:37:05;;;;;;;;;;;20.20;59.30;;;;;;491336;242;1246;-72
2021/06/30 09:39:04;;;;;;;;;;;20.20;59.30;;;;;;491066;238;1950;-72
2021/06/30 09:41:06;;;;;;;;;;;20.20;59.30;;;;;;491221;242;1313;-72
2021/06/30 09:43:07;;;;;;;;;;;20.20;59.20;;;;;;491124;242;1519;-72
2021/06/30 09:45:08;;;;;;;;;;;20.20;59.10;;;;;;491209;242;2156;-72
2021/06/30 09:47:09;;;;;;;;;;;20.30;59.20;;;;;;491105;242;1337;-72
2021/06/30 09:49:10;;;;;;;;;;;20.30;59.10;;;;;;491361;242;1116;-72
2021/06/30 09:51:12;;;;;;;;;;;20.30;59.00;;;;;;491421;242;1272;-72
2021/06/30 09:53:13;;;;;;;;;;;20.20;59.00;;;;;;491546;242;1123;-72
2021/06/30 09:55:14;;;;;;;;;;;20.30;59.00;;;;;;491394;242;1075;-72
2021/06/30 09:57:16;;;;;;;;;;;20.20;59.00;;;;;;491311;242;1094;-72
2021/06/30 09:59:18;;;;;;;;;;;20.20;58.90;;;;;;491263;242;1274;-72
2021/06/30 10:01:18;;;;;;;;;;;20.20;58.90;;;;;;491329;242;1329;-72
2021/06/30 10:03:20;;;;;;;;;;;20.30;59.00;;;;;;491895;242;1032;-72
2021/06/30 10:05:21;;;;;;;;;;;20.20;58.90;;;;;;491107;242;2183;-72
2021/06/30 10:07:22;;;;;;;;;;;20.20;58.80;;;;;;491201;242;1080;-73
2021/06/30 10:09:24;;;;;;;;;;;20.20;58.80;;;;;;491165;242;1142;-72
2021/06/30 10:11:25;;;;;;;;;;;20.20;58.80;;;;;;491189;242;1227;-72
2021/06/30 10:13:26;;;;;;;;;;;20.20;58.80;;;;;;491062;242;1063;-72
2021/06/30 10:15:28;;;;;;;;;;;20.20;58.80;;;;;;491046;242;1129;-72
2021/06/30 10:17:29;;;;;;;;;;;20.20;58.80;;;;;;490995;242;1180;-72
2021/06/30 10:19:30;;;;;;;;;;;20.20;58.70;;;;;;491093;242;1240;-72
2021/06/30 10:21:32;;;;;;;;;;;20.20;58.80;;;;;;490963;242;1163;-72
2021/06/30 10:23:33;;;;;;;;;;;20.20;58.80;;;;;;491574;242;1294;-72
2021/06/30 10:25:34;;;;;;;;;;;20.20;58.80;;;;;;491326;242;2169;-72
2021/06/30 10:27:38;;;;;;;;;;;20.20;58.80;;;;;;491437;242;1128;-72
2021/06/30 10:29:37;;;;;;;;;;;20.20;58.90;;;;;;491132;242;1381;-72
2021/06/30 10:31:41;;;;;;;;;;;20.20;59.00;;;;;;491313;242;1317;-72
2021/06/30 10:33:41;;;;;;;;;;;20.20;59.00;;;;;;491069;242;1322;-72
2021/06/30 10:35:41;;;;;;;;;;;20.20;59.10;;;;;;491194;242;1323;-72
2021/06/30 10:37:43;;;;;;;;;;;20.20;59.10;;;;;;491462;242;1195;-72
2021/06/30 10:39:44;;;;;;;;;;;20.20;59.10;;;;;;491522;242;1137;-72
2021/06/30 10:41:50;;;;;;;;;;;20.20;59.10;;;;;;491367;242;1219;-73
2021/06/30 10:43:47;;;;;;;;;;;20.20;59.10;;;;;;491174;242;1423;-73
2021/06/30 10:45:52;;;;;;;;;;;20.20;59.10;;;;;;491456;242;1121;-73
2021/06/30 10:47:50;;;;;;;;;;;20.20;59.10;;;;;;490953;242;2071;-73
2021/06/30 10:49:51;;;;;;;;;;;20.20;59.10;;;;;;491572;242;2240;-73
2021/06/30 10:51:52;;;;;;;;;;;20.20;59.00;;;;;;491443;242;1307;-73
2021/06/30 10:53:55;;;;;;;;;;;20.30;59.00;;;;;;491198;242;1255;-73
2021/06/30 10:55:55;;;;;;;;;;;20.20;58.90;;;;;;491481;242;1302;-73
2021/06/30 10:57:57;;;;;;;;;;;20.20;58.80;;;;;;491412;242;1067;-73
2021/06/30 10:59:58;;;;;;;;;;;20.30;58.70;;;;;;491365;242;1041;-72
2021/06/30 11:01:59;;;;;;;;;;;20.30;58.70;;;;;;491212;242;1030;-71
2021/06/30 11:04:02;;;;;;;;;;;20.30;58.60;;;;;;491066;242;2192;-73
2021/06/30 11:06:02;;;;;;;;;;;20.20;58.50;;;;;;491086;242;2141;-72
2021/06/30 11:08:03;;;;;;;;;;;20.20;58.40;;;;;;491482;242;1327;-72
2021/06/30 11:10:04;;;;;;;;;;;20.30;58.40;;;;;;491301;242;1073;-72
2021/06/30 11:12:06;;;;;;;;;;;20.30;58.40;;;;;;491334;242;1125;-72
2021/06/30 11:14:07;;;;;;;;;;;20.30;58.40;;;;;;491333;242;1098;-72
2021/06/30 11:16:08;;;;;;;;;;;20.30;58.40;;;;;;490912;242;1343;-72
2021/06/30 11:18:10;;;;;;;;;;;20.30;58.30;;;;;;491119;242;1353;-73
2021/06/30 11:20:11;;;;;;;;;;;20.30;58.20;;;;;;491182;242;1123;-72
2021/06/30 11:22:12;;;;;;;;;;;20.30;58.40;;;;;;491245;242;1051;-71
2021/06/30 11:24:14;;;;;;;;;;;20.30;58.40;;;;;;491385;242;2129;-72
2021/06/30 11:26:15;;;;;;;;;;;20.30;58.40;;;;;;491259;242;1242;-72
2021/06/30 11:28:16;;;;;;;;;;;20.30;58.30;;;;;;491228;242;1055;-72
2021/06/30 11:30:18;;;;;;;;;;;20.30;58.30;;;;;;491106;242;1072;-72
2021/06/30 11:32:19;;;;;;;;;;;20.20;58.30;;;;;;491235;242;1123;-72
2021/06/30 11:34:21;;;;;;;;;;;20.30;58.30;;;;;;491459;242;870;-72
2021/06/30 11:36:23;;;;;;;;;;;20.30;58.30;;;;;;491902;242;1128;-72
2021/06/30 11:38:24;;;;;;;;;;;20.30;58.30;;;;;;492093;242;1050;-72
2021/06/30 11:40:28;;;;;;;;;;;20.30;58.20;;;;;;491678;242;853;-72
2021/06/30 11:42:27;;;;;;;;;;;20.30;58.20;;;;;;491372;242;1480;-72
2021/06/30 11:44:29;;;;;;;;;;;20.30;58.10;;;;;;491315;242;2179;-72
2021/06/30 11:46:31;;;;;;;;;;;20.30;58.10;;;;;;491145;242;1218;-72
2021/06/30 11:48:32;;;;;;;;;;;20.30;58.00;;;;;;491382;242;1290;-72
2021/06/30 11:50:32;;;;;;;;;;;20.30;58.00;;;;;;491238;242;1589;-72
2021/06/30 11:52:33;;;;;;;;;;;20.30;58.10;;;;;;491553;242;1165;-72
2021/06/30 11:54:35;;;;;;;;;;;20.30;58.10;;;;;;491361;242;1124;-72
2021/06/30 11:56:36;;;;;;;;;;;20.30;58.10;;;;;;491322;242;1172;-72